createdAt,value
2022-09-12T00:02:19.000Z,0.00
2022-09-12T00:07:14.000Z,0.00
2022-09-12T00:12:07.000Z,0.00
2022-09-12T00:17:02.000Z,0.00
2022-09-12T00:21:56.000Z,0.00
2022-09-12T00:26:51.000Z,0.00
2022-09-12T00:31:45.000Z,0.00
2022-09-12T00:36:39.000Z,0.00
2022-09-12T00:41:33.000Z,0.00
2022-09-12T00:46:28.000Z,0.00
2022-09-12T00:51:22.000Z,0.00
2022-09-12T00:56:16.000Z,0.00
2022-09-12T01:01:11.000Z,0.00
2022-09-12T01:06:05.000Z,0.00
2022-09-12T01:11:00.000Z,0.00
2022-09-12T01:15:53.000Z,0.00
2022-09-12T01:20:46.000Z,0.00
2022-09-12T01:25:41.000Z,0.00
2022-09-12T01:30:35.000Z,0.00
2022-09-12T01:35:30.000Z,0.00
2022-09-12T01:40:24.000Z,0.00
2022-09-12T01:45:19.000Z,0.00
2022-09-12T01:50:13.000Z,0.00
2022-09-12T01:55:06.000Z,0.00
2022-09-12T02:00:01.000Z,0.00
2022-09-12T02:04:55.000Z,0.00
2022-09-12T02:09:50.000Z,0.00
2022-09-12T02:14:44.000Z,0.00
2022-09-12T02:19:38.000Z,0.00
2022-09-12T02:24:32.000Z,0.00
2022-09-12T02:29:27.000Z,0.00
2022-09-12T02:34:21.000Z,0.00
2022-09-12T02:39:15.000Z,0.00
2022-09-12T02:44:10.000Z,0.00
2022-09-12T02:49:04.000Z,0.00
2022-09-12T02:53:59.000Z,0.00
2022-09-12T02:58:53.000Z,0.00
2022-09-12T03:03:48.000Z,0.00
2022-09-12T03:08:42.000Z,0.00
2022-09-12T03:13:37.000Z,0.00
2022-09-12T03:18:31.000Z,0.00
2022-09-12T03:23:26.000Z,0.00
2022-09-12T03:28:20.000Z,0.00
2022-09-12T03:33:15.000Z,0.00
2022-09-12T03:38:09.000Z,0.00
2022-09-12T03:43:04.000Z,0.00
2022-09-12T03:47:58.000Z,0.00
2022-09-12T03:52:52.000Z,0.00
2022-09-12T03:57:45.000Z,0.00
2022-09-12T04:02:37.000Z,0.00
2022-09-12T04:07:31.000Z,0.00
2022-09-12T04:12:25.000Z,0.00
2022-09-12T04:17:20.000Z,0.00
2022-09-12T04:22:14.000Z,0.00
2022-09-12T04:27:09.000Z,0.00
2022-09-12T04:32:04.000Z,0.00
2022-09-12T04:36:58.000Z,0.83
2022-09-12T04:41:53.000Z,2.50
2022-09-12T04:46:47.000Z,5.83
2022-09-12T04:51:41.000Z,15.00
2022-09-12T04:56:36.000Z,30.00
2022-09-12T05:01:31.000Z,49.17
2022-09-12T05:06:25.000Z,74.17
2022-09-12T05:11:19.000Z,106.67
2022-09-12T05:16:14.000Z,145.83
2022-09-12T05:21:09.000Z,192.50
2022-09-12T05:26:03.000Z,242.50
2022-09-12T05:30:57.000Z,293.33
2022-09-12T05:35:52.000Z,344.17
2022-09-12T05:40:45.000Z,395.83
2022-09-12T05:45:40.000Z,450.83
2022-09-12T05:50:35.000Z,505.00
2022-09-12T05:55:29.000Z,558.33
2022-09-12T06:00:24.000Z,611.67
2022-09-12T06:05:18.000Z,657.50
2022-09-12T06:10:13.000Z,708.33
2022-09-12T06:15:07.000Z,751.67
2022-09-12T06:20:02.000Z,783.33
2022-09-12T06:24:57.000Z,820.00
2022-09-12T06:29:52.000Z,845.83
2022-09-12T06:34:46.000Z,856.67
2022-09-12T06:39:41.000Z,870.83
2022-09-12T06:44:36.000Z,858.33
2022-09-12T06:49:30.000Z,796.67
2022-09-12T06:54:24.000Z,802.50
2022-09-12T06:59:19.000Z,855.00
2022-09-12T07:04:13.000Z,886.67
2022-09-12T07:09:08.000Z,881.67
2022-09-12T07:14:03.000Z,930.83
2022-09-12T07:18:58.000Z,927.50
2022-09-12T07:23:52.000Z,1009.17
2022-09-12T07:28:47.000Z,1037.50
2022-09-12T07:33:41.000Z,1100.83
2022-09-12T07:38:36.000Z,1226.67
2022-09-12T07:43:31.000Z,1295.83
2022-09-12T07:48:25.000Z,1335.00
2022-09-12T07:53:19.000Z,1403.33
2022-09-12T07:58:13.000Z,1481.67
2022-09-12T08:03:10.000Z,1500.00
2022-09-12T08:08:02.000Z,1592.50
2022-09-12T08:12:57.000Z,1625.00
2022-09-12T08:17:52.000Z,1685.00
2022-09-12T08:22:46.000Z,1674.17
2022-09-12T08:27:42.000Z,1613.33
2022-09-12T08:32:36.000Z,1535.83
2022-09-12T08:37:31.000Z,1718.33
2022-09-12T08:42:26.000Z,1910.00
2022-09-12T08:47:21.000Z,1846.67
2022-09-12T08:52:15.000Z,1943.33
2022-09-12T08:57:10.000Z,2029.17
2022-09-12T09:02:05.000Z,2067.50
2022-09-12T09:07:00.000Z,2180.83
2022-09-12T09:11:55.000Z,2918.33
2022-09-12T09:16:50.000Z,4620.83
2022-09-12T09:21:46.000Z,4790.83
2022-09-12T09:26:42.000Z,5380.00
2022-09-12T09:31:38.000Z,4573.33
2022-09-12T09:36:33.000Z,4798.33
2022-09-12T09:41:26.000Z,5285.00
2022-09-12T09:46:21.000Z,5194.17
2022-09-12T09:51:16.000Z,4957.50
2022-09-12T09:56:11.000Z,5211.67
2022-09-12T10:01:07.000Z,6535.00
2022-09-12T10:06:03.000Z,5975.00
2022-09-12T10:10:58.000Z,5623.33
2022-09-12T10:15:53.000Z,5300.83
2022-09-12T10:20:47.000Z,4757.50
2022-09-12T10:25:42.000Z,7290.83
2022-09-12T10:30:36.000Z,6440.83
2022-09-12T10:35:35.000Z,6183.33
2022-09-12T10:40:27.000Z,7898.33
2022-09-12T10:45:23.000Z,5976.67
2022-09-12T10:50:17.000Z,7612.50
2022-09-12T10:55:12.000Z,7883.33
2022-09-12T11:00:07.000Z,7923.33
2022-09-12T11:05:01.000Z,7860.00
2022-09-12T11:09:55.000Z,6702.50
2022-09-12T11:14:49.000Z,8108.33
2022-09-12T11:19:45.000Z,8421.67
2022-09-12T11:24:40.000Z,7938.33
2022-09-12T11:29:35.000Z,8011.67
2022-09-12T11:34:29.000Z,7819.17
2022-09-12T11:39:24.000Z,7745.83
2022-09-12T11:44:19.000Z,8237.50
2022-09-12T11:49:14.000Z,8885.83
2022-09-12T11:54:08.000Z,9180.83
2022-09-12T11:59:03.000Z,8949.17
2022-09-12T12:03:58.000Z,9366.67
2022-09-12T12:08:53.000Z,9968.33
2022-09-12T12:13:48.000Z,9962.50
2022-09-12T12:18:44.000Z,10163.33
2022-09-12T12:23:36.000Z,9819.17
2022-09-12T12:28:31.000Z,9775.83
2022-09-12T12:33:25.000Z,10090.00
2022-09-12T12:38:20.000Z,10277.50
2022-09-12T12:43:14.000Z,10246.67
2022-09-12T12:48:09.000Z,10292.50
2022-09-12T12:53:03.000Z,10314.17
2022-09-12T12:57:58.000Z,10652.50
2022-09-12T13:02:54.000Z,10123.33
2022-09-12T13:07:49.000Z,10637.50
2022-09-12T13:12:44.000Z,10091.67
2022-09-12T13:17:38.000Z,10480.83
2022-09-12T13:22:33.000Z,10254.17
2022-09-12T13:27:28.000Z,10270.83
2022-09-12T13:32:23.000Z,10516.67
2022-09-12T13:37:18.000Z,10421.67
2022-09-12T13:42:11.000Z,10251.67
2022-09-12T13:47:06.000Z,10419.17
2022-09-12T13:52:00.000Z,10847.50
2022-09-12T13:56:54.000Z,11000.83
2022-09-12T14:01:49.000Z,11040.00
2022-09-12T14:06:44.000Z,11015.00
2022-09-12T14:11:38.000Z,11090.00
2022-09-12T14:16:33.000Z,11089.17
2022-09-12T14:21:28.000Z,11172.50
2022-09-12T14:26:22.000Z,11173.33
2022-09-12T14:31:17.000Z,11207.50
2022-09-12T14:36:12.000Z,11104.17
2022-09-12T14:41:07.000Z,10988.33
2022-09-12T14:46:02.000Z,10828.33
2022-09-12T14:50:56.000Z,10596.67
2022-09-12T14:55:51.000Z,10325.83
2022-09-12T15:00:46.000Z,10047.50
2022-09-12T15:05:41.000Z,9789.17
2022-09-12T15:10:36.000Z,10025.83
2022-09-12T15:15:30.000Z,10208.33
2022-09-12T15:20:26.000Z,9992.50
2022-09-12T15:25:20.000Z,9870.00
2022-09-12T15:30:15.000Z,9611.67
2022-09-12T15:35:10.000Z,8280.83
2022-09-12T15:40:04.000Z,7908.33
2022-09-12T15:44:59.000Z,7091.67
2022-09-12T15:49:53.000Z,6997.50
2022-09-12T15:54:47.000Z,6807.50
2022-09-12T15:59:41.000Z,6012.50
2022-09-12T16:04:35.000Z,3883.33
2022-09-12T16:09:29.000Z,2954.17
2022-09-12T16:14:23.000Z,3529.17
2022-09-12T16:19:17.000Z,4361.67
2022-09-12T16:24:12.000Z,6085.00
2022-09-12T16:29:07.000Z,5787.50
2022-09-12T16:34:02.000Z,4875.00
2022-09-12T16:38:57.000Z,2985.83
2022-09-12T16:43:51.000Z,2891.67
2022-09-12T16:48:46.000Z,1736.67
2022-09-12T16:53:40.000Z,2118.33
2022-09-12T16:58:34.000Z,1356.67
2022-09-12T17:03:28.000Z,2305.83
2022-09-12T17:08:22.000Z,1723.33
2022-09-12T17:13:17.000Z,3137.50
2022-09-12T17:18:12.000Z,2113.33
2022-09-12T17:23:07.000Z,720.00
2022-09-12T17:28:01.000Z,490.83
2022-09-12T17:32:55.000Z,297.50
2022-09-12T17:37:49.000Z,200.00
2022-09-12T17:42:43.000Z,148.33
2022-09-12T17:47:38.000Z,83.33
2022-09-12T17:52:38.000Z,45.00
2022-09-12T17:57:24.000Z,25.00
2022-09-12T18:02:18.000Z,14.17
2022-09-12T18:07:11.000Z,6.67
2022-09-12T18:12:06.000Z,2.50
2022-09-12T18:17:00.000Z,0.83
2022-09-12T18:21:55.000Z,0.00
2022-09-12T18:26:50.000Z,0.00
2022-09-12T18:31:45.000Z,0.00
2022-09-12T18:36:39.000Z,0.00
2022-09-12T18:41:34.000Z,0.00
2022-09-12T18:46:28.000Z,0.00
2022-09-12T18:51:22.000Z,0.00
2022-09-12T18:56:17.000Z,0.00
2022-09-12T19:01:12.000Z,0.00
2022-09-12T19:06:06.000Z,0.00
2022-09-12T19:11:01.000Z,0.00
2022-09-12T19:15:55.000Z,0.00
2022-09-12T19:20:50.000Z,0.00
2022-09-12T19:25:45.000Z,0.00
2022-09-12T19:30:39.000Z,0.00
2022-09-12T19:35:34.000Z,0.00
2022-09-12T19:40:28.000Z,0.00
2022-09-12T19:45:23.000Z,0.00
2022-09-12T19:50:18.000Z,0.00
2022-09-12T19:55:12.000Z,0.00
2022-09-12T20:00:07.000Z,0.00
2022-09-12T20:05:02.000Z,0.00
2022-09-12T20:09:56.000Z,0.00
2022-09-12T20:14:51.000Z,0.00
2022-09-12T20:19:46.000Z,0.00
2022-09-12T20:24:40.000Z,0.00
2022-09-12T20:29:35.000Z,0.00
2022-09-12T20:34:30.000Z,0.00
2022-09-12T20:39:24.000Z,0.00
2022-09-12T20:44:16.000Z,0.00
2022-09-12T20:49:10.000Z,0.00
2022-09-12T20:54:07.000Z,0.00
2022-09-12T20:58:59.000Z,0.00
2022-09-12T21:03:53.000Z,0.00
2022-09-12T21:08:48.000Z,0.00
2022-09-12T21:13:42.000Z,0.00
2022-09-12T21:18:36.000Z,0.00
2022-09-12T21:23:31.000Z,0.00
2022-09-12T21:28:26.000Z,0.00
2022-09-12T21:33:21.000Z,0.00
2022-09-12T21:38:15.000Z,0.00
2022-09-12T21:43:10.000Z,0.00
2022-09-12T21:48:05.000Z,0.00
2022-09-12T21:52:59.000Z,0.00
2022-09-12T21:57:54.000Z,0.00
2022-09-12T22:02:49.000Z,0.00
2022-09-12T22:07:43.000Z,0.00
2022-09-12T22:12:38.000Z,0.00
2022-09-12T22:17:33.000Z,0.00
2022-09-12T22:22:27.000Z,0.00
2022-09-12T22:27:21.000Z,0.00
2022-09-12T22:32:16.000Z,0.00
2022-09-12T22:37:11.000Z,0.00
2022-09-12T22:42:06.000Z,0.00
2022-09-12T22:47:00.000Z,0.00
2022-09-12T22:51:55.000Z,0.00
2022-09-12T22:56:50.000Z,0.00
2022-09-12T23:01:47.000Z,0.00
2022-09-12T23:06:39.000Z,0.00
2022-09-12T23:11:33.000Z,0.00
2022-09-12T23:16:27.000Z,0.00
2022-09-12T23:21:22.000Z,0.00
2022-09-12T23:26:17.000Z,0.00
2022-09-12T23:31:11.000Z,0.00
2022-09-12T23:36:06.000Z,0.00
2022-09-12T23:41:01.000Z,0.00
2022-09-12T23:45:55.000Z,0.00
2022-09-12T23:50:50.000Z,0.00
2022-09-12T23:55:45.000Z,0.00
